Sea Cloud — 9HOM2 — position and weather

sailwx.info

Track history (hours):
 
Tides and Currents Weather Stations Pressure Air Temp Water Temp Dewpoint Dewpoint Depression Visibility Wind Speed Wind Dir Waves Ship Positions

Sea Cloud

Ship's website: http://www.seacloud.com/en/the-ships/sea-cloud.html

Last reported at 2017-Sep-23 21:30 UTC. Time now 2017-Sep-25 09:43 UTC.
Position N 36°59' E 025°20'.

Length 110 m; draft 5.2 m.

Type: Ship. MMSI: 256084000.

Date/timePositionNaut miles runAvg speedWind from/ knotsBaromVisibWave heightAir tempDewpointWater temp
2017-Sep-23 21:30N 36°59' E 025°20'3 5.9
2017-Sep-23 21:00N 37°02' E 025°20'2 4.1
2017-Sep-23 20:29N 37°04' E 025°21'0 0.1
2017-Sep-23 19:59N 37°04' E 025°21'  
2017-Sep-20 18:04N 37°38' E 023°59'3 7.3
2017-Sep-20 17:42N 37°38' E 023°56'3 9.8
2017-Sep-20 17:25N 37°38' E 023°52'410.3
2017-Sep-20 17:00N 37°39' E 023°47'5 9.2
2017-Sep-20 16:30N 37°41' E 023°42'510.1
2017-Sep-20 16:00N 37°46' E 023°39'5 9.9
2017-Sep-20 15:31N 37°50' E 023°37'5 9.8
2017-Sep-20 15:00N 37°55' E 023°36'2 1.7
2017-Sep-20 14:00N 37°56' E 023°38'0 0.0
2017-Sep-20 13:30N 37°56' E 023°38'0 0.0
2017-Sep-20 13:00N 37°56' E 023°38'0 0.0
2017-Sep-20 12:30N 37°56' E 023°38'0 0.0
2017-Sep-20 12:00N 37°56' E 023°38'0 0.0
2017-Sep-20 11:30N 37°56' E 023°38'0 0.0
2017-Sep-20 11:00N 37°56' E 023°38'0 0.0
2017-Sep-20 10:30N 37°56' E 023°38'0 0.0
2017-Sep-20 10:00N 37°56' E 023°38'0 0.0
2017-Sep-20 09:30N 37°56' E 023°38'0 0.0
2017-Sep-20 09:00N 37°56' E 023°38'0 0.0
2017-Sep-20 08:30N 37°56' E 023°38'0 0.0
2017-Sep-20 07:57N 37°56' E 023°38'0 0.0
2017-Sep-20 07:30N 37°56' E 023°38'0 0.0
2017-Sep-20 07:00N 37°56' E 023°38'0 0.0
2017-Sep-20 06:30N 37°56' E 023°38'0 0.0
2017-Sep-20 06:00N 37°56' E 023°38'0 0.0
2017-Sep-20 05:30N 37°56' E 023°38'0 0.0
2017-Sep-20 05:00N 37°56' E 023°38'0 0.0
2017-Sep-20 04:30N 37°56' E 023°38'0 0.0
2017-Sep-20 04:00N 37°56' E 023°38'1 2.5
2017-Sep-20 03:31N 37°56' E 023°37'1 1.4
2017-Sep-20 03:01N 37°55' E 023°37'3 6.3
2017-Sep-20 02:31N 37°52' E 023°39'3 6.6
2017-Sep-20 02:01N 37°49' E 023°41'3 6.4
2017-Sep-20 01:30N 37°46' E 023°42'3 6.7
2017-Sep-20 01:00N 37°43' E 023°44'3 6.9
2017-Sep-20 00:31N 37°40' E 023°46'8 6.3
2017-Sep-19 23:17N 37°34' E 023°52'2 5.4
2017-Sep-19 22:56N 37°32' E 023°50'2 5.7
2017-Sep-19 22:30N 37°30' E 023°49'3 5.9
2017-Sep-19 22:01N 37°27' E 023°48'3 6.2
2017-Sep-19 21:31N 37°24' E 023°47'3 6.5
2017-Sep-19 21:00N 37°21' E 023°45'3 6.7
2017-Sep-19 20:31N 37°18' E 023°43'3 6.6
2017-Sep-19 20:00N 37°15' E 023°41'3 5.5
2017-Sep-19 19:31N 37°13' E 023°39'3 5.6
2017-Sep-19 19:01N 37°12' E 023°36'3 5.5
2017-Sep-19 18:31N 37°11' E 023°32'3 5.2
2017-Sep-19 17:59N 37°10' E 023°29'3 5.2
2017-Sep-19 17:29N 37°10' E 023°26'18 3.3
2017-Sep-19 11:49N 36°52' E 023°21'1 3.2
2017-Sep-19 11:31N 36°51' E 023°22'1 2.5
2017-Sep-19 11:01N 36°49' E 023°22'1 2.1
2017-Sep-19 10:30N 36°48' E 023°22'153 3.4
2017-Sep-17 14:03N 38°22' E 020°50'0 0.4
2017-Sep-17 14:00N 38°22' E 020°50'0 0.4
2017-Sep-17 13:20N 38°22' E 020°50'0 0.6
2017-Sep-17 12:53N 38°22' E 020°50'6 0.7
2017-Sep-17 03:34N 38°27' E 020°44'1 5.2
2017-Sep-17 03:28N 38°27' E 020°44'3 5.4
2017-Sep-17 03:00N 38°29' E 020°43'6 5.7
2017-Sep-17 01:57N 38°32' E 020°36'3 6.5
2017-Sep-17 01:26N 38°33' E 020°32'3 6.3
2017-Sep-17 01:00N 38°35' E 020°30'10 5.9
2017-Sep-16 23:14N 38°45' E 020°28'1 5.7
2017-Sep-16 23:00N 38°47' E 020°28'30 7.0
2017-Sep-16 18:47N 39°15' E 020°17'310.4
2017-Sep-16 18:30N 39°17' E 020°14'  
Track history (hours):
 
Tides and Currents Weather Stations Pressure Air Temp Water Temp Dewpoint Dewpoint Depression Visibility Wind Speed Wind Dir Waves Ship Positions

Sea Cloud

Ship's website: http://www.seacloud.com/en/the-ships/sea-cloud.html

Last reported at 2017-Sep-23 21:30 UTC. Time now 2017-Sep-25 09:43 UTC.
Position N 36°59' E 025°20'.

Length 110 m; draft 5.2 m.

Type: Ship. MMSI: 256084000.

Date/timePositionNaut miles runAvg speedWind from/ knotsBaromVisibWave heightAir tempDewpointWater temp
2017-Sep-23 21:30N 36°59' E 025°20'3 5.9
2017-Sep-23 21:00N 37°02' E 025°20'2 4.1
2017-Sep-23 20:29N 37°04' E 025°21'0 0.1
2017-Sep-23 19:59N 37°04' E 025°21'  
2017-Sep-20 18:04N 37°38' E 023°59'3 7.3
2017-Sep-20 17:42N 37°38' E 023°56'3 9.8
2017-Sep-20 17:25N 37°38' E 023°52'410.3
2017-Sep-20 17:00N 37°39' E 023°47'5 9.2
2017-Sep-20 16:30N 37°41' E 023°42'510.1
2017-Sep-20 16:00N 37°46' E 023°39'5 9.9
2017-Sep-20 15:31N 37°50' E 023°37'5 9.8
2017-Sep-20 15:00N 37°55' E 023°36'2 1.7
2017-Sep-20 14:00N 37°56' E 023°38'0 0.0
2017-Sep-20 13:30N 37°56' E 023°38'0 0.0
2017-Sep-20 13:00N 37°56' E 023°38'0 0.0
2017-Sep-20 12:30N 37°56' E 023°38'0 0.0
2017-Sep-20 12:00N 37°56' E 023°38'0 0.0
2017-Sep-20 11:30N 37°56' E 023°38'0 0.0
2017-Sep-20 11:00N 37°56' E 023°38'0 0.0
2017-Sep-20 10:30N 37°56' E 023°38'0 0.0
2017-Sep-20 10:00N 37°56' E 023°38'0 0.0
2017-Sep-20 09:30N 37°56' E 023°38'0 0.0
2017-Sep-20 09:00N 37°56' E 023°38'0 0.0
2017-Sep-20 08:30N 37°56' E 023°38'0 0.0
2017-Sep-20 07:57N 37°56' E 023°38'0 0.0
2017-Sep-20 07:30N 37°56' E 023°38'0 0.0
2017-Sep-20 07:00N 37°56' E 023°38'0 0.0
2017-Sep-20 06:30N 37°56' E 023°38'0 0.0
2017-Sep-20 06:00N 37°56' E 023°38'0 0.0
2017-Sep-20 05:30N 37°56' E 023°38'0 0.0
2017-Sep-20 05:00N 37°56' E 023°38'0 0.0
2017-Sep-20 04:30N 37°56' E 023°38'0 0.0
2017-Sep-20 04:00N 37°56' E 023°38'1 2.5
2017-Sep-20 03:31N 37°56' E 023°37'1 1.4
2017-Sep-20 03:01N 37°55' E 023°37'3 6.3
2017-Sep-20 02:31N 37°52' E 023°39'3 6.6
2017-Sep-20 02:01N 37°49' E 023°41'3 6.4
2017-Sep-20 01:30N 37°46' E 023°42'3 6.7
2017-Sep-20 01:00N 37°43' E 023°44'3 6.9
2017-Sep-20 00:31N 37°40' E 023°46'8 6.3
2017-Sep-19 23:17N 37°34' E 023°52'2 5.4
2017-Sep-19 22:56N 37°32' E 023°50'2 5.7
2017-Sep-19 22:30N 37°30' E 023°49'3 5.9
2017-Sep-19 22:01N 37°27' E 023°48'3 6.2
2017-Sep-19 21:31N 37°24' E 023°47'3 6.5
2017-Sep-19 21:00N 37°21' E 023°45'3 6.7
2017-Sep-19 20:31N 37°18' E 023°43'3 6.6
2017-Sep-19 20:00N 37°15' E 023°41'3 5.5
2017-Sep-19 19:31N 37°13' E 023°39'3 5.6
2017-Sep-19 19:01N 37°12' E 023°36'3 5.5
2017-Sep-19 18:31N 37°11' E 023°32'3 5.2
2017-Sep-19 17:59N 37°10' E 023°29'3 5.2
2017-Sep-19 17:29N 37°10' E 023°26'18 3.3
2017-Sep-19 11:49N 36°52' E 023°21'1 3.2
2017-Sep-19 11:31N 36°51' E 023°22'1 2.5
2017-Sep-19 11:01N 36°49' E 023°22'1 2.1
2017-Sep-19 10:30N 36°48' E 023°22'153 3.4
2017-Sep-17 14:03N 38°22' E 020°50'0 0.4
2017-Sep-17 14:00N 38°22' E 020°50'0 0.4
2017-Sep-17 13:20N 38°22' E 020°50'0 0.6
2017-Sep-17 12:53N 38°22' E 020°50'6 0.7
2017-Sep-17 03:34N 38°27' E 020°44'1 5.2
2017-Sep-17 03:28N 38°27' E 020°44'3 5.4
2017-Sep-17 03:00N 38°29' E 020°43'6 5.7
2017-Sep-17 01:57N 38°32' E 020°36'3 6.5
2017-Sep-17 01:26N 38°33' E 020°32'3 6.3
2017-Sep-17 01:00N 38°35' E 020°30'10 5.9
2017-Sep-16 23:14N 38°45' E 020°28'1 5.7
2017-Sep-16 23:00N 38°47' E 020°28'30 7.0
2017-Sep-16 18:47N 39°15' E 020°17'310.4
2017-Sep-16 18:30N 39°17' E 020°14'  

Dump ship's entire track history